Time;durP1;ratioP1;P1;durP2;ratioP2;P2;SDS_P1;SDS_P2;PMS_P1;PMS_P2;Temp;Humidity;BMP_temperature;BMP_pressure;BME280_temperature;BME280_humidity;BME280_pressure;Samples;Min_cycle;Max_cycle;Signal;HPM_P1;HPM_P2
2021/08/08 00:00:57;;;;;;;;;7.67;7.33;;;;;22.86;59.29;97562.78;4920049;28;103413;-84
2021/08/08 00:03:25;;;;;;;;;8.00;7.67;;;;;22.86;59.38;97564.72;4901991;28;102302;-84
2021/08/08 00:05:52;;;;;;;;;7.67;7.00;;;;;22.86;59.58;97562.78;4891320;28;103475;-84
2021/08/08 00:08:20;;;;;;;;;7.67;7.67;;;;;22.86;59.46;97578.50;4900918;28;102216;-84
2021/08/08 00:10:52;;;;;;;;;8.00;8.00;;;;;22.87;59.48;97563.63;4905233;28;101986;-84
2021/08/08 00:13:27;;;;;;;;;8.67;7.67;;;;;22.85;59.60;97571.34;4908232;28;102575;-84
2021/08/08 00:16:10;;;;;;;;;9.67;9.67;;;;;22.84;59.55;97567.78;4898987;28;103306;-84
2021/08/08 00:18:45;;;;;;;;;7.00;6.67;;;;;22.84;59.55;97570.53;4913092;28;102197;-84
2021/08/08 00:21:21;;;;;;;;;7.67;6.67;;;;;22.84;59.53;97570.53;4923116;28;102237;-84
2021/08/08 00:23:56;;;;;;;;;8.00;7.33;;;;;22.84;59.46;97569.72;4872772;28;102420;-84
2021/08/08 00:26:29;;;;;;;;;6.33;5.67;;;;;22.83;59.54;97560.63;4910452;28;103320;-84
2021/08/08 00:29:05;;;;;;;;;6.00;6.00;;;;;22.81;59.49;97554.63;4922684;28;102631;-84
2021/08/08 00:31:40;;;;;;;;;10.33;8.67;;;;;22.83;59.72;97557.88;4910217;28;103308;-84
2021/08/08 00:34:17;;;;;;;;;8.00;6.67;;;;;22.82;59.63;97553.50;4915102;28;102216;-84
2021/08/08 00:36:50;;;;;;;;;8.00;7.67;;;;;22.82;59.55;97549.94;4914607;28;107114;-84
2021/08/08 00:39:25;;;;;;;;;8.00;7.00;;;;;22.81;59.51;97546.34;4911301;28;103877;-84
2021/08/08 00:41:59;;;;;;;;;8.33;7.67;;;;;22.81;59.46;97554.63;4913889;28;103611;-84
2021/08/08 00:44:31;;;;;;;;;11.00;9.00;;;;;22.82;59.65;97542.47;4916602;28;102187;-84
2021/08/08 00:46:58;;;;;;;;;7.33;7.33;;;;;22.80;59.60;97541.94;4917432;28;103550;-84
2021/08/08 00:49:25;;;;;;;;;8.00;6.33;;;;;22.81;59.58;97554.63;4918689;28;102044;-84
2021/08/08 00:51:52;;;;;;;;;6.00;6.00;;;;;22.80;59.60;97555.72;4902751;28;104329;-84
2021/08/08 00:54:19;;;;;;;;;5.33;5.33;;;;;22.80;59.56;97544.72;4914822;28;102211;-84
2021/08/08 00:56:47;;;;;;;;;8.33;6.67;;;;;22.80;59.53;97558.50;4924842;28;103514;-84
2021/08/08 00:59:14;;;;;;;;;7.67;6.67;;;;;22.81;59.78;97565.66;4919870;28;101672;-84
2021/08/08 01:01:43;;;;;;;;;8.00;6.67;;;;;22.80;59.73;97558.50;4905444;28;103827;-84
2021/08/08 01:04:12;;;;;;;;;11.00;8.67;;;;;22.79;59.51;97562.38;4876230;28;102468;-84
2021/08/08 01:06:51;;;;;;;;;9.33;8.33;;;;;22.80;59.67;97552.97;4910860;28;103539;-84
2021/08/08 01:09:19;;;;;;;;;8.00;8.00;;;;;22.80;59.63;97546.66;4897414;28;104310;-84
2021/08/08 01:11:46;;;;;;;;;7.67;7.33;;;;;22.79;59.66;97545.00;4890798;28;102265;-84
2021/08/08 01:14:17;;;;;;;;;11.00;10.00;;;;;22.80;59.40;97547.47;4911265;28;101805;-84
2021/08/08 01:16:53;;;;;;;;;7.67;7.00;;;;;22.80;59.64;97543.88;4865883;28;107611;-84
2021/08/08 01:19:28;;;;;;;;;8.33;7.67;;;;;22.79;59.65;97545.00;4836884;28;102218;-84
2021/08/08 01:22:06;;;;;;;;;10.00;9.00;;;;;22.79;59.70;97547.75;4910176;28;103629;-84
2021/08/08 01:24:39;;;;;;;;;10.00;9.33;;;;;22.78;59.57;97546.16;4923182;28;102103;-84
2021/08/08 01:27:15;;;;;;;;;7.67;7.33;;;;;22.77;59.71;97539.81;4898006;28;103479;-84
2021/08/08 01:29:48;;;;;;;;;7.00;6.33;;;;;22.77;59.84;97536.25;4902716;28;101782;-83
2021/08/08 01:32:23;;;;;;;;;7.33;6.67;;;;;22.78;59.59;97551.66;4913991;28;102185;-84
2021/08/08 01:34:57;;;;;;;;;8.67;8.00;;;;;22.76;59.86;97548.38;4900826;28;102051;-84
2021/08/08 01:37:33;;;;;;;;;9.00;7.67;;;;;22.77;59.58;97547.25;4905980;28;103040;-84
2021/08/08 01:40:40;;;;;;;;;9.00;7.67;;;;;22.77;59.80;97541.75;4894266;28;102206;-84
2021/08/08 01:43:18;;;;;;;;;8.67;7.33;;;;;22.73;59.65;97547.06;4827032;28;101971;-84
2021/08/08 01:45:51;;;;;;;;;4.67;4.67;;;;;22.77;59.76;97550.03;4901206;28;102248;-84
2021/08/08 01:48:23;;;;;;;;;8.00;8.00;;;;;22.75;59.78;97553.06;4896738;28;106945;-84
2021/08/08 01:50:54;;;;;;;;;9.33;7.00;;;;;22.76;59.63;97540.94;4929439;28;101780;-84
2021/08/08 01:53:26;;;;;;;;;7.67;7.00;;;;;22.71;59.47;97540.19;4848373;28;104393;-83
2021/08/08 01:55:53;;;;;;;;;8.33;7.33;;;;;22.75;59.70;97555.81;4924547;28;101819;-84
2021/08/08 01:58:21;;;;;;;;;6.33;5.67;;;;;22.75;59.53;97550.31;4930695;28;103838;-84
2021/08/08 02:00:49;;;;;;;;;8.00;6.33;;;;;22.75;59.90;97555.81;4911281;28;106848;-84
2021/08/08 02:03:16;;;;;;;;;7.00;7.00;;;;;22.74;59.60;97556.94;4926703;28;109980;-84
2021/08/08 02:05:44;;;;;;;;;7.00;7.00;;;;;22.73;59.65;97558.09;4905860;28;103204;-84
2021/08/08 02:08:11;;;;;;;;;8.67;7.67;;;;;22.74;59.71;97559.69;4912590;28;103606;-84
2021/08/08 02:10:38;;;;;;;;;9.00;8.33;;;;;22.74;59.57;97559.69;4917429;28;102523;-84
2021/08/08 02:13:05;;;;;;;;;7.00;6.67;;;;;22.74;59.58;97559.69;4920192;28;101827;-84
2021/08/08 02:15:32;;;;;;;;;6.00;6.00;;;;;22.73;59.52;97566.34;4915607;28;104566;-84
2021/08/08 02:17:59;;;;;;;;;6.33;6.33;;;;;22.74;59.88;97573.47;4916193;28;103429;-84
2021/08/08 02:20:27;;;;;;;;;9.33;6.00;;;;;22.74;59.84;97586.47;4899765;28;102967;-84
2021/08/08 02:22:54;;;;;;;;;6.00;6.00;;;;;22.73;59.66;97582.91;4912918;28;101908;-84
2021/08/08 02:25:21;;;;;;;;;5.67;5.67;;;;;22.74;59.67;97590.00;4925391;28;102180;-84
2021/08/08 02:27:48;;;;;;;;;5.67;5.67;;;;;22.74;59.63;97594.75;4915787;28;109601;-84
2021/08/08 02:30:16;;;;;;;;;7.67;7.00;;;;;22.74;59.73;97597.50;4901888;28;101944;-83
2021/08/08 02:32:43;;;;;;;;;6.50;6.50;;;;;22.64;59.64;97584.69;4916701;28;102219;-84
2021/08/08 02:35:12;;;;;;;;;7.67;5.67;;;;;22.73;59.67;97610.47;4905424;28;101801;-84
2021/08/08 02:37:40;;;;;;;;;7.00;6.67;;;;;22.71;59.71;97609.94;4914806;28;103445;-84
2021/08/08 02:40:07;;;;;;;;;7.00;6.67;;;;;22.72;59.55;97614.31;4918380;28;102313;-84
2021/08/08 02:42:34;;;;;;;;;7.00;6.33;;;;;22.72;59.65;97628.09;4909712;28;103215;-83
2021/08/08 02:45:02;;;;;;;;;6.00;6.00;;;;;22.71;59.72;97623.72;4909347;28;101857;-84
2021/08/08 02:47:30;;;;;;;;;7.67;7.67;;;;;22.71;59.52;97631.16;4909182;28;110490;-84
2021/08/08 02:49:57;;;;;;;;;9.33;6.67;;;;;22.71;59.46;97639.41;4909666;28;101813;-84
2021/08/08 02:52:25;;;;;;;;;6.00;5.67;;;;;22.70;59.57;97644.13;4917986;28;101952;-83
2021/08/08 02:54:52;;;;;;;;;6.67;6.00;;;;;22.72;59.46;97646.56;4919799;28;102013;-84
2021/08/08 02:57:19;;;;;;;;;7.00;7.00;;;;;22.71;59.58;97653.19;4913713;28;108406;-84
2021/08/08 02:59:46;;;;;;;;;5.67;5.33;;;;;22.71;59.47;97665.03;4912070;28;102176;-84
2021/08/08 03:02:13;;;;;;;;;6.67;6.33;;;;;22.58;59.54;97649.25;4913315;28;103467;-84
2021/08/08 03:04:41;;;;;;;;;8.00;7.00;;;;;22.69;59.50;97664.53;4911867;28;103472;-84
2021/08/08 03:07:11;;;;;;;;;7.00;6.33;;;;;22.70;59.58;97679.94;4916555;28;103299;-84
2021/08/08 03:09:38;;;;;;;;;6.67;6.00;;;;;22.68;59.60;97676.66;4906927;28;101940;-84
2021/08/08 03:12:05;;;;;;;;;7.00;5.67;;;;;22.71;59.48;97686.28;4914497;28;101896;-84
2021/08/08 03:14:32;;;;;;;;;6.67;6.33;;;;;22.69;59.51;97690.16;4923006;28;103649;-84
2021/08/08 03:17:00;;;;;;;;;7.00;5.67;;;;;22.69;59.63;97694.84;4909848;28;104271;-84
2021/08/08 03:19:27;;;;;;;;;8.67;7.00;;;;;22.68;59.55;97691.25;4934601;28;107614;-84
2021/08/08 03:21:54;;;;;;;;;4.67;4.67;;;;;22.68;59.54;97693.19;4936697;28;101864;-84
2021/08/08 03:24:21;;;;;;;;;6.67;6.00;;;;;22.66;59.42;97689.91;4926628;28;103240;-84
2021/08/08 03:26:51;;;;;;;;;5.33;5.33;;;;;22.69;59.53;97700.34;4910591;28;103498;-84
2021/08/08 03:29:18;;;;;;;;;6.00;5.33;;;;;22.68;59.42;97698.69;4924033;28;102125;-84
2021/08/08 03:31:45;;;;;;;;;8.67;6.67;;;;;22.69;59.65;97725.97;4908818;28;102293;-84
2021/08/08 03:34:12;;;;;;;;;5.67;5.33;;;;;22.68;59.51;97727.09;4923998;28;101945;-84
2021/08/08 03:36:39;;;;;;;;;6.33;4.67;;;;;22.58;59.24;97721.72;4918996;28;103555;-84
2021/08/08 03:39:06;;;;;;;;;6.00;5.00;;;;;22.68;59.28;97751.88;4918115;28;102255;-84
2021/08/08 03:41:34;;;;;;;;;6.67;6.67;;;;;22.68;59.45;97756.56;4934785;28;102287;-84
2021/08/08 03:44:01;;;;;;;;;6.67;5.67;;;;;22.67;59.26;97775.03;4930312;28;102306;-84
2021/08/08 03:46:28;;;;;;;;;5.33;5.33;;;;;22.67;59.27;97780.56;4920998;28;103427;-84
2021/08/08 03:48:55;;;;;;;;;8.33;6.00;;;;;22.67;59.08;97790.75;4925282;28;101663;-84
2021/08/08 03:51:23;;;;;;;;;6.00;6.00;;;;;22.66;59.12;97808.41;4911153;28;104444;-84
2021/08/08 03:53:50;;;;;;;;;7.00;6.67;;;;;22.67;59.36;97818.31;4911931;28;101847;-84
2021/08/08 03:56:17;;;;;;;;;8.33;7.33;;;;;22.66;59.14;97817.50;4929208;28;103543;-84
2021/08/08 03:58:47;;;;;;;;;6.67;6.67;;;;;22.65;59.55;97826.06;4907295;28;110056;-84
2021/08/08 04:01:18;;;;;;;;;9.00;7.67;;;;;22.66;59.29;97827.69;4912547;28;102522;-84
2021/08/08 04:03:46;;;;;;;;;5.67;5.33;;;;;22.66;59.43;97827.69;4923981;28;102081;-84
2021/08/08 04:06:13;;;;;;;;;6.00;6.00;;;;;22.65;59.31;97842.59;4910339;28;103459;-84
2021/08/08 04:08:40;;;;;;;;;6.00;6.00;;;;;22.65;59.23;97837.06;4906673;28;102175;-83
2021/08/08 04:11:14;;;;;;;;;7.00;6.00;;;;;22.59;59.29;97830.03;4929677;28;102298;-84
2021/08/08 04:13:41;;;;;;;;;9.33;7.33;;;;;22.64;59.40;97847.31;4905355;28;103453;-84
2021/08/08 04:16:08;;;;;;;;;7.00;7.00;;;;;22.65;59.29;97854.44;4915180;28;103394;-84
2021/08/08 04:18:35;;;;;;;;;5.67;5.33;;;;;22.65;59.21;97868.22;4921135;28;102231;-84
2021/08/08 04:21:02;;;;;;;;;6.00;6.00;;;;;22.65;59.37;97876.47;4916921;28;104923;-84
2021/08/08 04:23:29;;;;;;;;;7.00;6.00;;;;;22.63;59.26;97883.41;4917961;28;102171;-84
2021/08/08 04:25:57;;;;;;;;;6.00;5.67;;;;;22.64;59.54;97896.09;4930304;28;103555;-84
2021/08/08 04:28:24;;;;;;;;;6.33;5.00;;;;;22.63;59.55;97902.72;4914983;28;102352;-84
2021/08/08 04:30:51;;;;;;;;;5.33;5.33;;;;;22.62;59.47;97923.13;4923092;28;102184;-84
2021/08/08 04:33:18;;;;;;;;;8.00;7.00;;;;;22.62;59.46;97914.84;4929650;28;109825;-84
2021/08/08 04:35:45;;;;;;;;;6.00;6.00;;;;;22.61;59.36;97930.56;4898214;28;103812;-84
2021/08/08 04:38:12;;;;;;;;;6.00;5.67;;;;;22.61;59.36;97933.31;4928136;28;102009;-84
2021/08/08 04:40:39;;;;;;;;;5.67;5.67;;;;;22.63;59.28;97938.53;4927115;28;102828;-84
2021/08/08 04:43:06;;;;;;;;;5.67;5.67;;;;;22.63;59.17;97936.59;4923849;28;102036;-84
2021/08/08 04:45:34;;;;;;;;;6.00;5.00;;;;;22.52;59.53;97914.97;4932635;28;108755;-84
2021/08/08 04:48:01;;;;;;;;;4.67;4.67;;;;;22.63;59.22;97927.50;4930138;28;103248;-84
2021/08/08 04:50:28;;;;;;;;;6.67;5.67;;;;;22.63;59.36;97928.34;4921423;28;101896;-84
2021/08/08 04:52:55;;;;;;;;;6.00;6.00;;;;;22.63;59.51;97938.53;4929189;28;101856;-84
2021/08/08 04:55:22;;;;;;;;;6.33;5.67;;;;;22.63;59.40;97927.50;4922948;28;103258;-84
2021/08/08 04:57:49;;;;;;;;;5.00;5.00;;;;;22.63;59.48;97939.38;4907875;28;103805;-84
2021/08/08 05:00:17;;;;;;;;;5.00;5.00;;;;;22.63;59.38;97938.53;4899840;28;102189;-84
2021/08/08 05:02:48;;;;;;;;;5.00;5.00;;;;;22.63;59.57;97944.06;4911754;28;101925;-84
2021/08/08 05:05:15;;;;;;;;;6.00;6.00;;;;;22.63;59.49;97946.81;4916745;28;103553;-84
2021/08/08 05:07:44;;;;;;;;;4.33;4.00;;;;;22.63;59.55;97960.59;4914344;28;102293;-83
2021/08/08 05:10:14;;;;;;;;;4.67;4.33;;;;;22.61;59.42;97968.31;4928528;28;102751;-84
2021/08/08 05:12:41;;;;;;;;;4.67;4.67;;;;;22.60;59.36;97964.72;4914188;28;103353;-84
2021/08/08 05:15:08;;;;;;;;;6.33;6.00;;;;;22.61;59.45;97976.56;4926944;28;103695;-84
2021/08/08 05:17:36;;;;;;;;;4.67;3.67;;;;;22.61;59.35;97973.81;4920432;28;102147;-84
2021/08/08 05:20:04;;;;;;;;;6.67;6.33;;;;;22.62;59.47;97975.47;4925486;28;102123;-84
2021/08/08 05:22:31;;;;;;;;;5.33;5.00;;;;;22.62;59.52;97983.75;4907473;28;104689;-84
2021/08/08 05:24:58;;;;;;;;;5.67;5.67;;;;;22.61;59.50;97990.34;4903268;28;104257;-84
2021/08/08 05:27:28;;;;;;;;;5.00;5.00;;;;;22.61;59.39;97995.88;4927018;28;102199;-84
2021/08/08 05:29:56;;;;;;;;;5.00;4.67;;;;;22.62;59.70;98005.78;4922164;28;103291;-84
2021/08/08 05:32:24;;;;;;;;;5.33;5.33;;;;;22.61;59.24;98006.91;4910621;28;103683;-84
2021/08/08 05:34:51;;;;;;;;;4.67;4.00;;;;;22.61;59.38;98009.66;4901640;28;103369;-84
2021/08/08 05:37:18;;;;;;;;;7.33;6.00;;;;;22.61;59.41;98015.16;4918287;28;101630;-84
2021/08/08 05:39:45;;;;;;;;;4.00;3.67;;;;;22.60;59.40;98022.59;4916302;28;102856;-84
2021/08/08 05:42:12;;;;;;;;;4.33;4.33;;;;;22.60;59.33;98013.53;4926330;28;103626;-84
2021/08/08 05:44:40;;;;;;;;;4.33;3.67;;;;;22.61;59.13;98024.25;4904573;28;102563;-84
2021/08/08 05:47:07;;;;;;;;;4.67;4.67;;;;;22.61;59.19;98009.66;4913015;28;102176;-85
2021/08/08 05:49:34;;;;;;;;;4.00;4.00;;;;;22.61;59.08;98023.44;4918841;28;101772;-84
2021/08/08 05:52:02;;;;;;;;;5.67;4.67;;;;;22.60;59.16;98022.59;4918232;28;101889;-84
2021/08/08 05:54:29;;;;;;;;;4.00;4.00;;;;;22.59;59.24;98032.00;4919364;28;108278;-84
2021/08/08 05:56:56;;;;;;;;;4.67;4.00;;;;;22.60;59.03;98050.16;4930710;28;102127;-84
2021/08/08 05:59:24;;;;;;;;;3.67;3.67;;;;;22.59;59.28;98053.22;4917635;28;101989;-84
2021/08/08 06:01:51;;;;;;;;;3.33;2.67;;;;;22.60;58.98;98061.19;4917866;28;102108;-84
2021/08/08 06:04:18;;;;;;;;;5.00;5.00;;;;;22.60;59.09;98065.91;4919765;28;103362;-84
2021/08/08 06:06:46;;;;;;;;;3.67;3.67;;;;;22.59;59.28;98076.09;4899934;28;102749;-84
2021/08/08 06:09:13;;;;;;;;;3.67;3.67;;;;;22.60;58.95;98068.66;4925823;28;101769;-84
2021/08/08 06:11:40;;;;;;;;;5.00;4.00;;;;;22.60;59.27;98065.91;4911867;28;102227;-84
2021/08/08 06:14:07;;;;;;;;;4.00;4.00;;;;;22.59;58.90;98087.13;4917032;28;103475;-83
2021/08/08 06:16:35;;;;;;;;;4.33;4.33;;;;;22.60;58.99;98094.25;4913483;28;102349;-84
2021/08/08 06:19:02;;;;;;;;;6.00;3.67;;;;;22.59;59.09;98091.81;4907390;28;102605;-84
2021/08/08 06:21:29;;;;;;;;;5.33;4.67;;;;;22.60;58.89;98099.78;4903453;28;102264;-84
2021/08/08 06:23:57;;;;;;;;;3.00;3.00;;;;;22.59;58.76;98097.31;4903697;28;103414;-84
2021/08/08 06:26:24;;;;;;;;;2.67;2.67;;;;;22.59;59.12;98097.31;4905735;28;102216;-84
2021/08/08 06:28:53;;;;;;;;;4.67;4.00;;;;;22.59;58.96;98105.59;4913688;28;102054;-84
2021/08/08 06:31:20;;;;;;;;;4.00;3.00;;;;;22.57;59.15;98100.38;4894196;28;103158;-84
2021/08/08 06:33:48;;;;;;;;;5.33;4.33;;;;;22.59;59.16;98103.66;4912629;28;103452;-84
2021/08/08 06:36:15;;;;;;;;;2.67;2.67;;;;;22.59;59.10;98102.84;4900396;28;102055;-84
2021/08/08 06:38:42;;;;;;;;;3.00;3.00;;;;;22.59;59.46;98111.09;4910486;28;102408;-86
2021/08/08 06:41:10;;;;;;;;;3.00;3.00;;;;;22.59;58.94;98122.13;4915013;28;102675;-85
2021/08/08 06:43:37;;;;;;;;;2.67;2.67;;;;;22.59;59.16;98127.63;4906958;28;103519;-85
2021/08/08 06:46:04;;;;;;;;;4.33;3.00;;;;;22.59;59.26;98124.88;4895817;28;102083;-85
2021/08/08 06:48:34;;;;;;;;;4.00;3.00;;;;;22.59;59.08;98130.41;4876937;28;101869;-85
2021/08/08 06:51:02;;;;;;;;;3.67;3.00;;;;;22.51;58.79;98122.75;4904954;28;102211;-84
2021/08/08 06:53:30;;;;;;;;;3.00;3.00;;;;;22.60;58.58;98126.53;4894185;28;108202;-86
2021/08/08 06:55:59;;;;;;;;;2.67;2.67;;;;;22.60;58.64;98132.84;4897491;28;102651;-89
2021/08/08 06:58:26;;;;;;;;;2.00;2.00;;;;;22.50;58.48;98110.09;4905517;28;102110;-86
2021/08/08 07:00:53;;;;;;;;;3.67;3.67;;;;;22.63;58.66;98139.72;4905271;28;102124;-85
2021/08/08 07:03:22;;;;;;;;;4.00;4.00;;;;;22.60;59.02;98126.53;4899590;28;102429;-86
2021/08/08 07:05:50;;;;;;;;;2.67;2.67;;;;;22.60;58.98;98127.31;4890580;28;102044;-84
2021/08/08 07:08:17;;;;;;;;;2.67;2.33;;;;;22.51;58.63;98140.13;4892279;28;103818;-84
2021/08/08 07:10:44;;;;;;;;;1.33;1.33;;;;;22.29;58.97;98130.69;4890295;28;102076;-84
2021/08/08 07:13:11;;;;;;;;;0.67;0.67;;;;;22.13;59.66;98133.53;4892780;28;103677;-82
2021/08/08 07:15:38;;;;;;;;;1.33;1.00;;;;;22.04;59.94;98135.25;4910268;28;102254;-82
2021/08/08 07:18:05;;;;;;;;;1.33;1.00;;;;;21.98;60.76;98128.13;4936186;28;101597;-82
2021/08/08 07:20:33;;;;;;;;;0.00;0.00;;;;;21.90;60.74;98128.72;4928780;28;102182;-82
2021/08/08 07:23:00;;;;;;;;;0.00;0.00;;;;;21.76;60.37;98122.19;4925736;28;108107;-82
2021/08/08 07:25:28;;;;;;;;;0.33;0.33;;;;;21.79;60.57;98129.91;4933503;28;102641;-83
2021/08/08 07:27:55;;;;;;;;;0.00;0.00;;;;;21.79;60.84;98124.41;4918239;28;101833;-82
2021/08/08 07:30:22;;;;;;;;;0.00;0.00;;;;;;;;4924423;28;101987;-82
2021/08/08 07:32:49;;;;;;;;;0.33;0.00;;;;;21.66;60.49;98122.25;4924790;28;103338;-83
2021/08/08 07:35:17;;;;;;;;;0.33;0.33;;;;;21.63;60.59;98126.41;4915509;28;102989;-83
2021/08/08 07:37:44;;;;;;;;;0.00;0.00;;;;;21.53;60.18;98109.13;4911425;28;103925;-83
2021/08/08 07:40:11;;;;;;;;;0.00;0.00;;;;;21.60;60.37;98128.91;4932767;28;102210;-82
2021/08/08 07:42:38;;;;;;;;;0.00;0.00;;;;;21.62;60.19;98123.94;4915541;28;103590;-82
2021/08/08 07:45:09;;;;;;;;;0.00;0.00;;;;;21.61;60.26;98125.06;4928539;28;102120;-83
2021/08/08 07:47:39;;;;;;;;;0.67;0.00;;;;;21.60;60.87;98123.41;4907876;28;102140;-82
2021/08/08 07:50:06;;;;;;;;;0.00;0.00;;;;;21.59;60.71;98127.25;4916933;28;101868;-82
2021/08/08 07:52:35;;;;;;;;;0.67;0.00;;;;;21.61;60.19;98114.88;4930940;28;108755;-82
2021/08/08 07:55:04;;;;;;;;;0.00;0.00;;;;;21.60;61.38;98123.41;4925087;28;102069;-83
2021/08/08 07:57:31;;;;;;;;;0.67;0.67;;;;;21.59;60.39;98127.25;4918705;28;101938;-82
2021/08/08 07:59:59;;;;;;;;;0.67;0.67;;;;;21.59;60.35;98117.06;4933583;28;102080;-82
2021/08/08 08:02:26;;;;;;;;;0.00;0.00;;;;;21.60;60.72;98126.16;4914192;28;103400;-82
2021/08/08 08:04:54;;;;;;;;;0.00;0.00;;;;;21.58;60.67;98142.09;4933590;28;102263;-81
2021/08/08 08:07:22;;;;;;;;;1.00;0.00;;;;;21.61;60.94;98119.56;4925591;28;111935;-82
2021/08/08 08:09:49;;;;;;;;;0.00;0.00;;;;;21.60;61.24;98124.22;4924212;28;106942;-82
2021/08/08 08:12:16;;;;;;;;;1.00;1.00;;;;;21.66;61.24;98133.25;4919818;28;103539;-82
2021/08/08 08:14:50;;;;;;;;;1.00;1.00;;;;;;;;4915534;28;103241;-82
2021/08/08 08:17:17;;;;;;;;;0.00;0.00;;;;;21.65;61.47;98131.63;4920034;28;101835;-82
2021/08/08 08:19:45;;;;;;;;;0.67;0.67;;;;;21.64;60.85;98135.47;4916535;28;102159;-82
2021/08/08 08:22:16;;;;;;;;;0.00;0.00;;;;;;;;4918993;28;103465;-82
2021/08/08 08:24:43;;;;;;;;;0.00;0.00;;;;;21.67;61.06;98168.75;4924145;28;101897;-82
2021/08/08 08:27:11;;;;;;;;;0.67;0.00;;;;;21.61;61.08;98163.56;4922105;28;102914;-81
2021/08/08 08:29:38;;;;;;;;;0.67;0.67;;;;;21.61;61.68;98158.91;4925854;28;102542;-81
2021/08/08 08:32:06;;;;;;;;;0.67;0.67;;;;;21.64;61.21;98163.00;4935066;28;103648;-82
2021/08/08 08:34:33;;;;;;;;;1.00;0.00;;;;;;;;4926284;28;104803;-82
2021/08/08 08:37:01;;;;;;;;;0.00;0.00;;;;;21.66;60.22;98166.28;4928735;28;102085;-82
2021/08/08 08:39:28;;;;;;;;;1.00;0.67;;;;;21.70;60.49;98170.94;4928945;28;103661;-82
2021/08/08 08:41:58;;;;;;;;;0.00;0.00;;;;;21.74;60.71;98173.97;4919239;28;103447;-82
2021/08/08 08:44:25;;;;;;;;;1.00;1.00;;;;;21.78;60.27;98186.06;4926819;28;102023;-81
2021/08/08 08:46:55;;;;;;;;;0.00;0.00;;;;;21.76;60.81;98189.06;4919347;28;110379;-81
2021/08/08 08:49:23;;;;;;;;;0.67;0.67;;;;;21.76;60.88;98193.75;4928138;28;102294;-81
2021/08/08 08:52:01;;;;;;;;;0.00;0.00;;;;;21.73;60.33;98188.81;4912545;28;103585;-81
2021/08/08 08:54:29;;;;;;;;;0.00;0.00;;;;;21.77;60.25;98189.91;4934681;28;103961;-81
2021/08/08 08:56:57;;;;;;;;;0.00;0.00;;;;;21.79;60.22;98187.69;4917501;28;102190;-81
2021/08/08 08:59:27;;;;;;;;;0.00;0.00;;;;;21.80;59.90;98181.06;4920396;28;101883;-81
2021/08/08 09:01:54;;;;;;;;;0.00;0.00;;;;;21.82;59.76;98176.13;4917809;28;103409;-81
2021/08/08 09:04:22;;;;;;;;;1.00;1.00;;;;;21.85;59.44;98182.97;4912736;28;102817;-83
2021/08/08 09:06:49;;;;;;;;;0.00;0.00;;;;;21.88;59.66;98166.72;4936942;28;102172;-82
2021/08/08 09:09:16;;;;;;;;;0.33;0.33;;;;;21.92;60.14;98170.56;4932002;28;102082;-83
2021/08/08 09:11:44;;;;;;;;;0.00;0.00;;;;;21.95;60.07;98175.50;4920094;28;104265;-83
2021/08/08 09:14:12;;;;;;;;;0.00;0.00;;;;;21.99;59.78;98162.00;4932931;28;103142;-83
2021/08/08 09:16:41;;;;;;;;;0.00;0.00;;;;;22.01;60.13;98166.13;4923814;28;103767;-83
2021/08/08 09:19:18;;;;;;;;;0.00;0.00;;;;;22.04;60.16;98165.53;4932770;28;105539;-83
2021/08/08 09:21:45;;;;;;;;;0.00;0.00;;;;;22.07;60.50;98169.66;4878627;28;107016;-83
2021/08/08 09:24:32;;;;;;;;;0.00;0.00;;;;;22.08;60.40;98174.88;4932251;28;102144;-83
2021/08/08 09:27:08;;;;;;;;;0.33;0.00;;;;;22.08;60.48;98196.91;4920356;28;102133;-83
2021/08/08 09:29:46;;;;;;;;;0.00;0.00;;;;;22.12;60.79;98203.50;4934576;28;101987;-83
2021/08/08 09:32:14;;;;;;;;;0.33;0.33;;;;;22.14;61.04;98214.22;4924422;28;113205;-83
2021/08/08 09:34:45;;;;;;;;;0.00;0.00;;;;;22.15;60.86;98224.94;4921180;28;103750;-83
2021/08/08 09:37:17;;;;;;;;;1.00;1.00;;;;;22.11;61.16;98212.06;4927863;28;101926;-83
2021/08/08 09:39:49;;;;;;;;;0.33;0.33;;;;;22.17;61.42;98228.25;4916970;28;102522;-83
2021/08/08 09:42:17;;;;;;;;;0.67;0.67;;;;;22.20;60.98;98235.94;4923969;28;103491;-83
2021/08/08 09:45:02;;;;;;;;;0.00;0.00;;;;;22.21;61.04;98228.50;4938457;28;102184;-82
2021/08/08 09:47:42;;;;;;;;;0.67;0.67;;;;;22.23;61.21;98232.63;4901101;28;102402;-83
2021/08/08 09:50:23;;;;;;;;;0.00;0.00;;;;;22.24;61.12;98217.72;4929110;28;101971;-83
2021/08/08 09:53:00;;;;;;;;;0.00;0.00;;;;;22.25;61.05;98216.63;4869058;28;108661;-83
2021/08/08 09:55:38;;;;;;;;;1.00;1.00;;;;;22.27;61.34;98223.78;4942223;28;101945;-83
2021/08/08 09:58:11;;;;;;;;;0.00;0.00;;;;;22.28;61.10;98217.16;4923226;28;104195;-83
2021/08/08 10:00:40;;;;;;;;;0.67;0.00;;;;;22.29;61.35;98225.13;4945361;28;102002;-82
2021/08/08 10:03:09;;;;;;;;;1.00;0.67;;;;;22.29;61.48;98232.59;4939647;28;108335;-83
2021/08/08 10:05:40;;;;;;;;;0.33;0.33;;;;;22.31;61.38;98236.69;4932419;28;103068;-83
2021/08/08 10:08:12;;;;;;;;;1.00;1.00;;;;;22.31;61.27;98236.69;4937183;28;102751;-83
2021/08/08 10:10:40;;;;;;;;;0.00;0.00;;;;;22.33;61.47;98233.66;4942328;28;101854;-83
2021/08/08 10:13:08;;;;;;;;;1.00;1.00;;;;;22.34;61.54;98244.38;4924338;28;108541;-83
2021/08/08 10:15:42;;;;;;;;;1.00;1.00;;;;;22.35;61.60;98239.69;4928827;28;102462;-82
2021/08/08 10:18:14;;;;;;;;;0.67;0.67;;;;;22.36;61.30;98242.16;4937845;28;102277;-83
2021/08/08 10:20:42;;;;;;;;;0.67;0.67;;;;;22.37;61.48;98243.00;4912873;28;104326;-83
2021/08/08 10:23:15;;;;;;;;;0.67;0.67;;;;;22.34;61.45;98246.31;4933784;28;109009;-83
2021/08/08 10:25:47;;;;;;;;;0.33;0.33;;;;;22.38;61.55;98244.66;4929724;28;104010;-83
2021/08/08 10:28:14;;;;;;;;;0.67;0.67;;;;;22.40;61.43;98254.25;4923425;28;101855;-83
2021/08/08 10:30:41;;;;;;;;;0.67;0.67;;;;;22.40;61.27;98247.94;4933303;28;110231;-82
2021/08/08 10:33:09;;;;;;;;;1.00;0.67;;;;;22.40;59.62;98242.41;4920365;28;109831;-82
2021/08/08 10:35:41;;;;;;;;;1.00;0.00;;;;;22.39;59.61;98241.59;4933509;28;102087;-82
2021/08/08 10:38:09;;;;;;;;;1.00;1.00;;;;;22.39;60.18;98240.75;4930823;28;102208;-83
2021/08/08 10:40:37;;;;;;;;;0.00;0.00;;;;;22.42;59.02;98237.47;4932426;28;102143;-83
2021/08/08 10:43:09;;;;;;;;;0.33;0.33;;;;;22.44;58.65;98235.22;4931567;28;103617;-84
2021/08/08 10:45:37;;;;;;;;;0.00;0.00;;;;;22.46;59.24;98235.78;4935133;28;102043;-83
2021/08/08 10:48:09;;;;;;;;;0.67;0.00;;;;;22.46;58.95;98230.25;4930538;28;102602;-84
2021/08/08 10:50:45;;;;;;;;;0.33;0.33;;;;;22.49;58.92;98232.44;4929951;28;102178;-84
2021/08/08 10:53:22;;;;;;;;;0.00;0.00;;;;;22.52;59.01;98229.91;4910492;28;108304;-83
2021/08/08 10:55:50;;;;;;;;;0.00;0.00;;;;;22.54;58.56;98226.88;4943442;28;102038;-83
2021/08/08 10:58:21;;;;;;;;;0.67;0.67;;;;;22.56;57.70;98230.19;4912267;28;107214;-82
2021/08/08 11:00:48;;;;;;;;;2.00;2.00;;;;;22.57;57.06;98237.31;4939298;28;102084;-83
2021/08/08 11:03:18;;;;;;;;;5.33;5.33;;;;;22.57;56.13;98231.81;4935941;28;104307;-83
2021/08/08 11:05:45;;;;;;;;;6.00;6.00;;;;;22.59;56.59;98249.72;4934685;28;102265;-83
2021/08/08 11:08:12;;;;;;;;;8.33;7.67;;;;;22.60;57.10;98245.84;4942254;28;102121;-82
2021/08/08 11:10:42;;;;;;;;;35.00;27.33;;;;;22.63;57.31;98250.78;4920320;28;102718;-83
2021/08/08 11:13:35;;;;;;;;;39.75;32.25;;;;;22.67;57.50;98259.31;4927629;28;108448;-84
2021/08/08 11:16:12;;;;;;;;;31.67;28.00;;;;;22.69;57.96;98259.84;4856631;28;102089;-83
2021/08/08 11:18:39;;;;;;;;;20.00;19.33;;;;;22.71;57.53;98256.81;4939388;28;102126;-84
2021/08/08 11:21:13;;;;;;;;;15.00;14.00;;;;;22.71;57.63;98273.34;4933105;28;102081;-84
2021/08/08 11:23:40;;;;;;;;;8.00;8.00;;;;;22.72;56.24;98264.81;4931182;28;107977;-84
2021/08/08 11:26:15;;;;;;;;;8.33;7.33;;;;;22.73;55.81;98258.19;4911192;28;102784;-84
2021/08/08 11:28:51;;;;;;;;;4.00;4.00;;;;;22.72;55.20;98262.06;4920389;28;102684;-84
2021/08/08 11:31:20;;;;;;;;;2.67;2.67;;;;;22.73;55.89;98263.72;4895683;28;102284;-83
2021/08/08 11:33:54;;;;;;;;;2.00;2.00;;;;;22.75;56.32;98255.97;4937479;28;103571;-83
2021/08/08 11:36:26;;;;;;;;;1.33;0.67;;;;;22.78;56.56;98260.09;4934014;28;102231;-83